sensor_id;sensor_type;location;lat;lon;timestamp;P1;durP1;ratioP1;P2;durP2;ratioP2
59042;SDS011;44826;51.596;5.624;2022-07-29T00:00:21;3.22;;;1.08;;
59042;SDS011;44826;51.596;5.624;2022-07-29T00:02:46;3.17;;;1.00;;
59042;SDS011;44826;51.596;5.624;2022-07-29T00:05:12;2.40;;;1.17;;
59042;SDS011;44826;51.596;5.624;2022-07-29T00:07:38;1.95;;;1.17;;
59042;SDS011;44826;51.596;5.624;2022-07-29T00:10:04;3.28;;;1.10;;
59042;SDS011;44826;51.596;5.624;2022-07-29T00:12:29;3.83;;;1.27;;
59042;SDS011;44826;51.596;5.624;2022-07-29T00:14:55;3.05;;;1.30;;
59042;SDS011;44826;51.596;5.624;2022-07-29T00:17:21;1.90;;;1.17;;
59042;SDS011;44826;51.596;5.624;2022-07-29T00:19:47;2.10;;;1.00;;
59042;SDS011;44826;51.596;5.624;2022-07-29T00:22:12;2.50;;;1.05;;
59042;SDS011;44826;51.596;5.624;2022-07-29T00:24:37;1.80;;;1.20;;
59042;SDS011;44826;51.596;5.624;2022-07-29T00:27:03;2.75;;;1.02;;
59042;SDS011;44826;51.596;5.624;2022-07-29T00:29:28;2.67;;;1.20;;
59042;SDS011;44826;51.596;5.624;2022-07-29T00:31:54;3.08;;;1.20;;
59042;SDS011;44826;51.596;5.624;2022-07-29T00:34:19;2.75;;;0.95;;
59042;SDS011;44826;51.596;5.624;2022-07-29T00:37:03;3.97;;;1.08;;
59042;SDS011;44826;51.596;5.624;2022-07-29T00:39:28;3.60;;;1.20;;
59042;SDS011;44826;51.596;5.624;2022-07-29T00:41:54;2.17;;;1.20;;
59042;SDS011;44826;51.596;5.624;2022-07-29T00:44:19;2.17;;;1.00;;
59042;SDS011;44826;51.596;5.624;2022-07-29T00:46:45;3.63;;;1.05;;
59042;SDS011;44826;51.596;5.624;2022-07-29T00:49:10;2.28;;;1.10;;
59042;SDS011;44826;51.596;5.624;2022-07-29T00:51:36;2.05;;;1.00;;
59042;SDS011;44826;51.596;5.624;2022-07-29T00:54:02;2.22;;;1.15;;
59042;SDS011;44826;51.596;5.624;2022-07-29T00:56:31;3.10;;;1.08;;
59042;SDS011;44826;51.596;5.624;2022-07-29T00:58:58;2.67;;;1.25;;
59042;SDS011;44826;51.596;5.624;2022-07-29T01:01:23;4.93;;;1.30;;
59042;SDS011;44826;51.596;5.624;2022-07-29T01:03:49;3.95;;;1.42;;
59042;SDS011;44826;51.596;5.624;2022-07-29T01:06:15;2.17;;;1.02;;
59042;SDS011;44826;51.596;5.624;2022-07-29T01:08:45;3.88;;;1.40;;
59042;SDS011;44826;51.596;5.624;2022-07-29T01:11:12;6.80;;;1.40;;
59042;SDS011;44826;51.596;5.624;2022-07-29T01:13:39;2.28;;;1.58;;
59042;SDS011;44826;51.596;5.624;2022-07-29T01:16:21;4.28;;;1.30;;
59042;SDS011;44826;51.596;5.624;2022-07-29T01:18:53;4.30;;;1.33;;
59042;SDS011;44826;51.596;5.624;2022-07-29T01:21:45;4.30;;;1.30;;
59042;SDS011;44826;51.596;5.624;2022-07-29T01:24:26;3.22;;;1.40;;
59042;SDS011;44826;51.596;5.624;2022-07-29T01:26:59;2.58;;;1.20;;
59042;SDS011;44826;51.596;5.624;2022-07-29T01:29:51;3.25;;;1.23;;
59042;SDS011;44826;51.596;5.624;2022-07-29T01:32:18;4.55;;;1.45;;
59042;SDS011;44826;51.596;5.624;2022-07-29T01:34:48;3.42;;;1.48;;
59042;SDS011;44826;51.596;5.624;2022-07-29T01:37:19;3.53;;;1.50;;
59042;SDS011;44826;51.596;5.624;2022-07-29T01:39:54;3.40;;;1.38;;
59042;SDS011;44826;51.596;5.624;2022-07-29T01:42:30;5.00;;;1.60;;
59042;SDS011;44826;51.596;5.624;2022-07-29T01:47:46;3.50;;;1.52;;
59042;SDS011;44826;51.596;5.624;2022-07-29T01:50:20;2.90;;;1.67;;
59042;SDS011;44826;51.596;5.624;2022-07-29T01:52:59;3.97;;;1.42;;
59042;SDS011;44826;51.596;5.624;2022-07-29T01:55:27;3.55;;;1.63;;
59042;SDS011;44826;51.596;5.624;2022-07-29T01:57:55;5.05;;;2.00;;
59042;SDS011;44826;51.596;5.624;2022-07-29T02:00:22;4.60;;;1.90;;
59042;SDS011;44826;51.596;5.624;2022-07-29T02:02:48;2.70;;;1.77;;
59042;SDS011;44826;51.596;5.624;2022-07-29T02:05:15;3.80;;;1.60;;
59042;SDS011;44826;51.596;5.624;2022-07-29T02:07:44;3.70;;;2.15;;
59042;SDS011;44826;51.596;5.624;2022-07-29T02:10:12;4.90;;;2.00;;
59042;SDS011;44826;51.596;5.624;2022-07-29T02:12:40;4.30;;;1.70;;
59042;SDS011;44826;51.596;5.624;2022-07-29T02:15:08;4.50;;;1.63;;
59042;SDS011;44826;51.596;5.624;2022-07-29T02:17:36;3.67;;;1.98;;
59042;SDS011;44826;51.596;5.624;2022-07-29T02:20:05;8.25;;;1.98;;
59042;SDS011;44826;51.596;5.624;2022-07-29T02:22:33;4.07;;;1.77;;
59042;SDS011;44826;51.596;5.624;2022-07-29T02:25:02;2.53;;;1.65;;
59042;SDS011;44826;51.596;5.624;2022-07-29T02:27:29;3.92;;;1.45;;
59042;SDS011;44826;51.596;5.624;2022-07-29T02:29:55;2.97;;;1.60;;
59042;SDS011;44826;51.596;5.624;2022-07-29T02:32:25;3.42;;;1.67;;
59042;SDS011;44826;51.596;5.624;2022-07-29T02:34:52;3.17;;;1.50;;
59042;SDS011;44826;51.596;5.624;2022-07-29T02:37:17;2.28;;;1.40;;
59042;SDS011;44826;51.596;5.624;2022-07-29T02:39:43;2.50;;;1.60;;
59042;SDS011;44826;51.596;5.624;2022-07-29T02:42:11;3.33;;;1.65;;
59042;SDS011;44826;51.596;5.624;2022-07-29T02:44:39;2.85;;;1.60;;
59042;SDS011;44826;51.596;5.624;2022-07-29T02:50:09;3.25;;;1.77;;
59042;SDS011;44826;51.596;5.624;2022-07-29T02:55:42;4.80;;;1.55;;
59042;SDS011;44826;51.596;5.624;2022-07-29T03:01:03;4.80;;;2.03;;
59042;SDS011;44826;51.596;5.624;2022-07-29T03:03:34;2.47;;;1.70;;
59042;SDS011;44826;51.596;5.624;2022-07-29T03:06:02;3.90;;;1.90;;
59042;SDS011;44826;51.596;5.624;2022-07-29T03:08:29;4.40;;;2.15;;
59042;SDS011;44826;51.596;5.624;2022-07-29T03:10:57;5.28;;;2.50;;
59042;SDS011;44826;51.596;5.624;2022-07-29T03:13:22;4.60;;;2.30;;
59042;SDS011;44826;51.596;5.624;2022-07-29T03:15:48;3.30;;;2.10;;
59042;SDS011;44826;51.596;5.624;2022-07-29T03:18:15;6.40;;;2.10;;
59042;SDS011;44826;51.596;5.624;2022-07-29T03:20:40;4.75;;;2.22;;
59042;SDS011;44826;51.596;5.624;2022-07-29T03:23:06;4.57;;;2.13;;
59042;SDS011;44826;51.596;5.624;2022-07-29T03:25:33;4.45;;;2.17;;
59042;SDS011;44826;51.596;5.624;2022-07-29T03:27:58;3.67;;;2.10;;
59042;SDS011;44826;51.596;5.624;2022-07-29T03:30:24;3.17;;;2.22;;
59042;SDS011;44826;51.596;5.624;2022-07-29T03:32:50;3.40;;;2.45;;
59042;SDS011;44826;51.596;5.624;2022-07-29T03:35:16;3.80;;;2.30;;
59042;SDS011;44826;51.596;5.624;2022-07-29T03:37:42;3.63;;;2.40;;
59042;SDS011;44826;51.596;5.624;2022-07-29T03:40:09;3.95;;;2.40;;
59042;SDS011;44826;51.596;5.624;2022-07-29T03:42:39;2.90;;;2.40;;
59042;SDS011;44826;51.596;5.624;2022-07-29T03:45:07;3.72;;;2.65;;
59042;SDS011;44826;51.596;5.624;2022-07-29T03:47:35;3.83;;;2.50;;
59042;SDS011;44826;51.596;5.624;2022-07-29T03:50:06;4.15;;;2.60;;
59042;SDS011;44826;51.596;5.624;2022-07-29T03:52:33;4.85;;;2.78;;
59042;SDS011;44826;51.596;5.624;2022-07-29T03:54:59;4.90;;;2.53;;
59042;SDS011;44826;51.596;5.624;2022-07-29T03:57:27;3.72;;;2.33;;
59042;SDS011;44826;51.596;5.624;2022-07-29T03:59:54;4.72;;;2.58;;
59042;SDS011;44826;51.596;5.624;2022-07-29T04:02:20;4.15;;;2.35;;
59042;SDS011;44826;51.596;5.624;2022-07-29T04:04:46;3.30;;;2.08;;
59042;SDS011;44826;51.596;5.624;2022-07-29T04:07:12;3.70;;;2.33;;
59042;SDS011;44826;51.596;5.624;2022-07-29T04:09:38;4.82;;;2.33;;
59042;SDS011;44826;51.596;5.624;2022-07-29T04:12:04;4.32;;;2.15;;
59042;SDS011;44826;51.596;5.624;2022-07-29T04:14:30;6.38;;;2.40;;
59042;SDS011;44826;51.596;5.624;2022-07-29T04:16:56;5.28;;;2.47;;
59042;SDS011;44826;51.596;5.624;2022-07-29T04:19:21;3.88;;;2.40;;
59042;SDS011;44826;51.596;5.624;2022-07-29T04:21:47;3.67;;;2.28;;
59042;SDS011;44826;51.596;5.624;2022-07-29T04:24:12;2.80;;;2.08;;
59042;SDS011;44826;51.596;5.624;2022-07-29T04:26:38;4.00;;;2.08;;
59042;SDS011;44826;51.596;5.624;2022-07-29T04:29:03;4.82;;;2.20;;
59042;SDS011;44826;51.596;5.624;2022-07-29T04:31:28;3.88;;;2.45;;
59042;SDS011;44826;51.596;5.624;2022-07-29T04:33:54;4.63;;;2.10;;
59042;SDS011;44826;51.596;5.624;2022-07-29T04:36:19;4.25;;;2.50;;
59042;SDS011;44826;51.596;5.624;2022-07-29T04:38:44;4.43;;;2.55;;
59042;SDS011;44826;51.596;5.624;2022-07-29T04:41:09;5.80;;;2.90;;
59042;SDS011;44826;51.596;5.624;2022-07-29T04:43:35;4.13;;;2.92;;
59042;SDS011;44826;51.596;5.624;2022-07-29T04:46:01;3.20;;;2.58;;
59042;SDS011;44826;51.596;5.624;2022-07-29T04:48:27;3.83;;;2.72;;
59042;SDS011;44826;51.596;5.624;2022-07-29T04:50:52;4.53;;;2.85;;
59042;SDS011;44826;51.596;5.624;2022-07-29T04:53:18;3.72;;;2.20;;
59042;SDS011;44826;51.596;5.624;2022-07-29T04:55:43;3.45;;;2.08;;
59042;SDS011;44826;51.596;5.624;2022-07-29T04:58:09;3.80;;;2.25;;
59042;SDS011;44826;51.596;5.624;2022-07-29T05:00:35;3.25;;;2.15;;
59042;SDS011;44826;51.596;5.624;2022-07-29T05:03:00;4.53;;;2.30;;
59042;SDS011;44826;51.596;5.624;2022-07-29T05:05:25;3.47;;;2.20;;
59042;SDS011;44826;51.596;5.624;2022-07-29T05:07:50;4.38;;;2.33;;
59042;SDS011;44826;51.596;5.624;2022-07-29T05:10:16;4.07;;;2.30;;
59042;SDS011;44826;51.596;5.624;2022-07-29T05:12:41;3.53;;;2.00;;
59042;SDS011;44826;51.596;5.624;2022-07-29T05:15:06;3.75;;;2.35;;
59042;SDS011;44826;51.596;5.624;2022-07-29T05:17:32;3.33;;;2.38;;
59042;SDS011;44826;51.596;5.624;2022-07-29T05:19:58;3.47;;;2.20;;
59042;SDS011;44826;51.596;5.624;2022-07-29T05:22:23;5.00;;;2.50;;
59042;SDS011;44826;51.596;5.624;2022-07-29T05:24:49;3.28;;;2.30;;
59042;SDS011;44826;51.596;5.624;2022-07-29T05:27:14;2.85;;;1.92;;
59042;SDS011;44826;51.596;5.624;2022-07-29T05:29:39;4.53;;;2.40;;
59042;SDS011;44826;51.596;5.624;2022-07-29T05:32:04;3.53;;;2.08;;
59042;SDS011;44826;51.596;5.624;2022-07-29T05:34:30;4.55;;;2.30;;
59042;SDS011;44826;51.596;5.624;2022-07-29T05:36:56;4.88;;;2.17;;
59042;SDS011;44826;51.596;5.624;2022-07-29T05:39:21;4.53;;;2.47;;
59042;SDS011;44826;51.596;5.624;2022-07-29T05:41:47;4.07;;;2.53;;
59042;SDS011;44826;51.596;5.624;2022-07-29T05:44:12;5.47;;;2.70;;
59042;SDS011;44826;51.596;5.624;2022-07-29T05:46:38;3.20;;;2.28;;
59042;SDS011;44826;51.596;5.624;2022-07-29T05:49:04;2.92;;;2.10;;
59042;SDS011;44826;51.596;5.624;2022-07-29T05:51:31;4.07;;;2.40;;
59042;SDS011;44826;51.596;5.624;2022-07-29T05:53:56;5.20;;;2.55;;
59042;SDS011;44826;51.596;5.624;2022-07-29T05:56:21;3.50;;;2.58;;
59042;SDS011;44826;51.596;5.624;2022-07-29T05:58:47;3.30;;;2.47;;
59042;SDS011;44826;51.596;5.624;2022-07-29T06:01:12;4.22;;;2.30;;
59042;SDS011;44826;51.596;5.624;2022-07-29T06:03:37;4.13;;;2.53;;
59042;SDS011;44826;51.596;5.624;2022-07-29T06:06:03;4.60;;;2.53;;
59042;SDS011;44826;51.596;5.624;2022-07-29T06:08:28;3.55;;;2.58;;
59042;SDS011;44826;51.596;5.624;2022-07-29T06:10:54;6.20;;;2.90;;
59042;SDS011;44826;51.596;5.624;2022-07-29T06:13:19;3.78;;;2.78;;
59042;SDS011;44826;51.596;5.624;2022-07-29T06:15:44;4.15;;;2.70;;
59042;SDS011;44826;51.596;5.624;2022-07-29T06:18:09;4.78;;;2.70;;
59042;SDS011;44826;51.596;5.624;2022-07-29T06:20:35;5.30;;;2.45;;
59042;SDS011;44826;51.596;5.624;2022-07-29T06:23:01;4.47;;;3.10;;
59042;SDS011;44826;51.596;5.624;2022-07-29T06:25:29;5.68;;;2.63;;
59042;SDS011;44826;51.596;5.624;2022-07-29T06:27:55;4.20;;;2.90;;
59042;SDS011;44826;51.596;5.624;2022-07-29T06:30:20;3.40;;;2.63;;
59042;SDS011;44826;51.596;5.624;2022-07-29T06:32:45;3.70;;;2.60;;
59042;SDS011;44826;51.596;5.624;2022-07-29T06:35:11;3.80;;;2.72;;
59042;SDS011;44826;51.596;5.624;2022-07-29T06:37:36;4.35;;;2.97;;
59042;SDS011;44826;51.596;5.624;2022-07-29T06:40:03;4.55;;;2.53;;
59042;SDS011;44826;51.596;5.624;2022-07-29T06:42:47;4.00;;;2.60;;
59042;SDS011;44826;51.596;5.624;2022-07-29T06:45:12;4.63;;;2.20;;
59042;SDS011;44826;51.596;5.624;2022-07-29T06:47:38;3.53;;;2.60;;
59042;SDS011;44826;51.596;5.624;2022-07-29T06:50:03;6.05;;;2.50;;
59042;SDS011;44826;51.596;5.624;2022-07-29T06:52:29;5.50;;;2.70;;
59042;SDS011;44826;51.596;5.624;2022-07-29T06:54:55;3.28;;;2.50;;
59042;SDS011;44826;51.596;5.624;2022-07-29T06:57:20;3.90;;;2.42;;
59042;SDS011;44826;51.596;5.624;2022-07-29T06:59:46;3.50;;;2.30;;
59042;SDS011;44826;51.596;5.624;2022-07-29T07:02:12;4.93;;;2.53;;
59042;SDS011;44826;51.596;5.624;2022-07-29T07:04:37;4.80;;;2.50;;
59042;SDS011;44826;51.596;5.624;2022-07-29T07:07:02;4.63;;;2.80;;
59042;SDS011;44826;51.596;5.624;2022-07-29T07:09:28;4.00;;;2.30;;
59042;SDS011;44826;51.596;5.624;2022-07-29T07:11:53;5.75;;;3.20;;
59042;SDS011;44826;51.596;5.624;2022-07-29T07:14:18;3.42;;;2.35;;
59042;SDS011;44826;51.596;5.624;2022-07-29T07:16:44;3.92;;;2.45;;
59042;SDS011;44826;51.596;5.624;2022-07-29T07:19:09;3.85;;;2.30;;
59042;SDS011;44826;51.596;5.624;2022-07-29T07:21:34;3.60;;;2.40;;
59042;SDS011;44826;51.596;5.624;2022-07-29T07:24:00;3.75;;;2.47;;
59042;SDS011;44826;51.596;5.624;2022-07-29T07:26:25;3.47;;;2.22;;
59042;SDS011;44826;51.596;5.624;2022-07-29T07:28:51;3.70;;;2.40;;
59042;SDS011;44826;51.596;5.624;2022-07-29T07:31:17;5.20;;;2.40;;
59042;SDS011;44826;51.596;5.624;2022-07-29T07:33:42;3.65;;;2.30;;
59042;SDS011;44826;51.596;5.624;2022-07-29T07:36:07;4.55;;;2.50;;
59042;SDS011;44826;51.596;5.624;2022-07-29T07:38:33;3.88;;;2.58;;
59042;SDS011;44826;51.596;5.624;2022-07-29T07:40:58;3.63;;;2.17;;
59042;SDS011;44826;51.596;5.624;2022-07-29T07:43:24;2.92;;;2.10;;
59042;SDS011;44826;51.596;5.624;2022-07-29T07:45:49;3.05;;;2.10;;
59042;SDS011;44826;51.596;5.624;2022-07-29T07:48:14;3.65;;;2.10;;
59042;SDS011;44826;51.596;5.624;2022-07-29T07:50:39;2.63;;;1.90;;
59042;SDS011;44826;51.596;5.624;2022-07-29T07:53:05;3.65;;;2.15;;
59042;SDS011;44826;51.596;5.624;2022-07-29T07:55:30;5.20;;;2.80;;
59042;SDS011;44826;51.596;5.624;2022-07-29T07:57:55;3.25;;;2.50;;
59042;SDS011;44826;51.596;5.624;2022-07-29T08:00:21;4.18;;;2.88;;
59042;SDS011;44826;51.596;5.624;2022-07-29T08:02:46;3.75;;;2.28;;
59042;SDS011;44826;51.596;5.624;2022-07-29T08:05:12;3.38;;;2.40;;
59042;SDS011;44826;51.596;5.624;2022-07-29T08:07:41;4.72;;;2.63;;
59042;SDS011;44826;51.596;5.624;2022-07-29T08:10:08;4.50;;;2.65;;
59042;SDS011;44826;51.596;5.624;2022-07-29T08:12:33;3.78;;;2.28;;
59042;SDS011;44826;51.596;5.624;2022-07-29T08:14:58;3.28;;;2.05;;
59042;SDS011;44826;51.596;5.624;2022-07-29T08:17:24;4.38;;;2.88;;
59042;SDS011;44826;51.596;5.624;2022-07-29T08:19:49;3.25;;;2.20;;
59042;SDS011;44826;51.596;5.624;2022-07-29T08:22:14;3.92;;;2.97;;
59042;SDS011;44826;51.596;5.624;2022-07-29T08:24:40;3.22;;;2.50;;
59042;SDS011;44826;51.596;5.624;2022-07-29T08:27:11;4.30;;;2.80;;
59042;SDS011;44826;51.596;5.624;2022-07-29T08:29:38;3.08;;;2.53;;
59042;SDS011;44826;51.596;5.624;2022-07-29T08:32:04;4.22;;;3.00;;
59042;SDS011;44826;51.596;5.624;2022-07-29T08:34:30;4.43;;;3.00;;
59042;SDS011;44826;51.596;5.624;2022-07-29T08:36:56;4.65;;;3.22;;
59042;SDS011;44826;51.596;5.624;2022-07-29T08:39:22;4.60;;;3.45;;
59042;SDS011;44826;51.596;5.624;2022-07-29T08:41:48;5.47;;;3.83;;
59042;SDS011;44826;51.596;5.624;2022-07-29T08:44:20;5.82;;;3.50;;
59042;SDS011;44826;51.596;5.624;2022-07-29T08:46:46;4.47;;;3.33;;
59042;SDS011;44826;51.596;5.624;2022-07-29T08:49:12;4.68;;;3.00;;
59042;SDS011;44826;51.596;5.624;2022-07-29T08:51:38;8.35;;;4.65;;
59042;SDS011;44826;51.596;5.624;2022-07-29T08:54:05;7.97;;;4.88;;
59042;SDS011;44826;51.596;5.624;2022-07-29T08:56:31;6.57;;;4.80;;
59042;SDS011;44826;51.596;5.624;2022-07-29T08:58:57;5.65;;;4.38;;
59042;SDS011;44826;51.596;5.624;2022-07-29T09:01:24;7.15;;;3.72;;
59042;SDS011;44826;51.596;5.624;2022-07-29T09:03:51;4.55;;;3.20;;
59042;SDS011;44826;51.596;5.624;2022-07-29T09:06:20;6.00;;;3.53;;
59042;SDS011;44826;51.596;5.624;2022-07-29T09:08:46;3.47;;;2.78;;
59042;SDS011;44826;51.596;5.624;2022-07-29T09:11:12;5.30;;;3.50;;
59042;SDS011;44826;51.596;5.624;2022-07-29T09:13:38;7.28;;;3.28;;
59042;SDS011;44826;51.596;5.624;2022-07-29T09:16:04;4.82;;;2.80;;
59042;SDS011;44826;51.596;5.624;2022-07-29T09:18:33;5.30;;;3.25;;
59042;SDS011;44826;51.596;5.624;2022-07-29T09:21:03;4.63;;;2.90;;
59042;SDS011;44826;51.596;5.624;2022-07-29T09:26:38;6.32;;;3.90;;
59042;SDS011;44826;51.596;5.624;2022-07-29T09:29:11;5.20;;;3.45;;
59042;SDS011;44826;51.596;5.624;2022-07-29T09:31:41;4.47;;;2.70;;
59042;SDS011;44826;51.596;5.624;2022-07-29T09:34:13;4.07;;;2.80;;
59042;SDS011;44826;51.596;5.624;2022-07-29T09:39:05;3.53;;;2.92;;
59042;SDS011;44826;51.596;5.624;2022-07-29T09:41:43;6.07;;;3.15;;
59042;SDS011;44826;51.596;5.624;2022-07-29T09:44:09;5.18;;;3.55;;
59042;SDS011;44826;51.596;5.624;2022-07-29T09:46:35;4.53;;;2.85;;
59042;SDS011;44826;51.596;5.624;2022-07-29T09:49:07;4.72;;;3.17;;
59042;SDS011;44826;51.596;5.624;2022-07-29T09:51:34;6.97;;;3.97;;
59042;SDS011;44826;51.596;5.624;2022-07-29T09:53:59;4.80;;;3.90;;
59042;SDS011;44826;51.596;5.624;2022-07-29T09:56:38;5.90;;;3.70;;
59042;SDS011;44826;51.596;5.624;2022-07-29T09:59:07;5.95;;;4.68;;
59042;SDS011;44826;51.596;5.624;2022-07-29T10:01:33;6.43;;;4.15;;
59042;SDS011;44826;51.596;5.624;2022-07-29T10:04:00;7.13;;;4.18;;
59042;SDS011;44826;51.596;5.624;2022-07-29T10:06:26;6.28;;;4.35;;
59042;SDS011;44826;51.596;5.624;2022-07-29T10:08:51;5.07;;;3.55;;
59042;SDS011;44826;51.596;5.624;2022-07-29T10:11:17;4.50;;;3.03;;
59042;SDS011;44826;51.596;5.624;2022-07-29T10:13:44;6.45;;;3.60;;
59042;SDS011;44826;51.596;5.624;2022-07-29T10:16:11;4.88;;;2.85;;
59042;SDS011;44826;51.596;5.624;2022-07-29T10:18:43;4.22;;;2.88;;
59042;SDS011;44826;51.596;5.624;2022-07-29T10:21:09;6.15;;;3.53;;
59042;SDS011;44826;51.596;5.624;2022-07-29T10:23:35;5.93;;;3.45;;
59042;SDS011;44826;51.596;5.624;2022-07-29T10:26:02;5.72;;;3.35;;
59042;SDS011;44826;51.596;5.624;2022-07-29T10:28:29;5.20;;;3.28;;
59042;SDS011;44826;51.596;5.624;2022-07-29T10:30:58;5.80;;;3.20;;
59042;SDS011;44826;51.596;5.624;2022-07-29T10:42:24;4.20;;;2.70;;
59042;SDS011;44826;51.596;5.624;2022-07-29T10:44:51;5.38;;;2.60;;
59042;SDS011;44826;51.596;5.624;2022-07-29T10:47:20;3.60;;;2.42;;
59042;SDS011;44826;51.596;5.624;2022-07-29T10:49:56;3.65;;;2.70;;
59042;SDS011;44826;51.596;5.624;2022-07-29T10:52:51;5.07;;;2.65;;
59042;SDS011;44826;51.596;5.624;2022-07-29T10:55:37;4.60;;;2.50;;
59042;SDS011;44826;51.596;5.624;2022-07-29T11:00:46;5.10;;;2.80;;
59042;SDS011;44826;51.596;5.624;2022-07-29T11:06:08;3.28;;;2.30;;
59042;SDS011;44826;51.596;5.624;2022-07-29T11:08:34;4.28;;;2.60;;
59042;SDS011;44826;51.596;5.624;2022-07-29T11:16:11;4.10;;;2.45;;
59042;SDS011;44826;51.596;5.624;2022-07-29T11:18:36;5.25;;;2.63;;
59042;SDS011;44826;51.596;5.624;2022-07-29T11:21:01;5.38;;;2.70;;
59042;SDS011;44826;51.596;5.624;2022-07-29T11:23:27;4.05;;;2.30;;
59042;SDS011;44826;51.596;5.624;2022-07-29T11:31:16;3.53;;;2.13;;
59042;SDS011;44826;51.596;5.624;2022-07-29T11:33:44;4.10;;;2.15;;
59042;SDS011;44826;51.596;5.624;2022-07-29T11:36:13;2.92;;;1.67;;
59042;SDS011;44826;51.596;5.624;2022-07-29T11:38:40;4.68;;;2.00;;
59042;SDS011;44826;51.596;5.624;2022-07-29T11:49:09;3.90;;;3.05;;
59042;SDS011;44826;51.596;5.624;2022-07-29T11:51:38;5.05;;;2.90;;
59042;SDS011;44826;51.596;5.624;2022-07-29T11:54:04;4.63;;;3.15;;
59042;SDS011;44826;51.596;5.624;2022-07-29T11:56:33;4.18;;;2.97;;
59042;SDS011;44826;51.596;5.624;2022-07-29T11:59:04;4.07;;;3.00;;
59042;SDS011;44826;51.596;5.624;2022-07-29T12:01:31;4.80;;;2.80;;
59042;SDS011;44826;51.596;5.624;2022-07-29T12:04:06;3.50;;;2.50;;
59042;SDS011;44826;51.596;5.624;2022-07-29T12:06:32;5.50;;;2.90;;
59042;SDS011;44826;51.596;5.624;2022-07-29T12:08:58;3.83;;;2.38;;
59042;SDS011;44826;51.596;5.624;2022-07-29T12:11:25;3.05;;;2.30;;
59042;SDS011;44826;51.596;5.624;2022-07-29T12:13:50;4.57;;;2.47;;
59042;SDS011;44826;51.596;5.624;2022-07-29T12:16:16;4.30;;;2.45;;
59042;SDS011;44826;51.596;5.624;2022-07-29T12:18:41;4.15;;;2.85;;
59042;SDS011;44826;51.596;5.624;2022-07-29T12:21:07;4.28;;;2.85;;
59042;SDS011;44826;51.596;5.624;2022-07-29T12:23:33;3.35;;;2.30;;
59042;SDS011;44826;51.596;5.624;2022-07-29T12:25:59;3.58;;;2.33;;
59042;SDS011;44826;51.596;5.624;2022-07-29T12:28:24;4.22;;;2.55;;
59042;SDS011;44826;51.596;5.624;2022-07-29T12:30:50;4.72;;;2.63;;
59042;SDS011;44826;51.596;5.624;2022-07-29T12:35:50;4.32;;;2.20;;
59042;SDS011;44826;51.596;5.624;2022-07-29T12:38:18;4.32;;;2.28;;
59042;SDS011;44826;51.596;5.624;2022-07-29T12:40:44;4.85;;;2.45;;
59042;SDS011;44826;51.596;5.624;2022-07-29T12:43:15;3.92;;;2.30;;
59042;SDS011;44826;51.596;5.624;2022-07-29T12:45:43;4.13;;;2.40;;
59042;SDS011;44826;51.596;5.624;2022-07-29T12:48:13;3.83;;;2.40;;
59042;SDS011;44826;51.596;5.624;2022-07-29T12:50:58;3.97;;;2.30;;
59042;SDS011;44826;51.596;5.624;2022-07-29T12:53:26;4.13;;;2.40;;
59042;SDS011;44826;51.596;5.624;2022-07-29T12:55:52;3.55;;;2.30;;
59042;SDS011;44826;51.596;5.624;2022-07-29T12:58:33;4.07;;;2.33;;
59042;SDS011;44826;51.596;5.624;2022-07-29T13:01:04;4.28;;;2.60;;
59042;SDS011;44826;51.596;5.624;2022-07-29T13:09:07;6.43;;;2.55;;
59042;SDS011;44826;51.596;5.624;2022-07-29T13:11:38;3.33;;;2.17;;
59042;SDS011;44826;51.596;5.624;2022-07-29T13:14:07;4.60;;;2.50;;
59042;SDS011;44826;51.596;5.624;2022-07-29T13:16:33;4.57;;;2.30;;
59042;SDS011;44826;51.596;5.624;2022-07-29T13:19:03;3.42;;;2.10;;
59042;SDS011;44826;51.596;5.624;2022-07-29T13:21:33;5.07;;;2.15;;
59042;SDS011;44826;51.596;5.624;2022-07-29T13:23:58;3.22;;;1.90;;
59042;SDS011;44826;51.596;5.624;2022-07-29T13:26:24;4.82;;;2.33;;
59042;SDS011;44826;51.596;5.624;2022-07-29T13:28:49;2.80;;;1.63;;
59042;SDS011;44826;51.596;5.624;2022-07-29T13:31:14;2.53;;;1.50;;
59042;SDS011;44826;51.596;5.624;2022-07-29T13:33:39;2.17;;;1.58;;
59042;SDS011;44826;51.596;5.624;2022-07-29T13:36:05;2.42;;;1.63;;
59042;SDS011;44826;51.596;5.624;2022-07-29T13:38:30;3.00;;;1.70;;
59042;SDS011;44826;51.596;5.624;2022-07-29T13:40:56;5.35;;;2.05;;
59042;SDS011;44826;51.596;5.624;2022-07-29T13:43:21;5.05;;;1.90;;
59042;SDS011;44826;51.596;5.624;2022-07-29T13:45:46;5.50;;;1.80;;
59042;SDS011;44826;51.596;5.624;2022-07-29T13:48:12;4.45;;;1.90;;
59042;SDS011;44826;51.596;5.624;2022-07-29T13:50:37;3.00;;;1.70;;
59042;SDS011;44826;51.596;5.624;2022-07-29T13:53:02;3.70;;;1.88;;
59042;SDS011;44826;51.596;5.624;2022-07-29T13:55:28;3.20;;;1.88;;
59042;SDS011;44826;51.596;5.624;2022-07-29T13:57:54;2.17;;;1.65;;
59042;SDS011;44826;51.596;5.624;2022-07-29T14:00:19;2.70;;;2.00;;
59042;SDS011;44826;51.596;5.624;2022-07-29T14:02:44;2.75;;;1.80;;
59042;SDS011;44826;51.596;5.624;2022-07-29T14:05:10;5.45;;;1.85;;
59042;SDS011;44826;51.596;5.624;2022-07-29T14:07:36;4.07;;;1.85;;
59042;SDS011;44826;51.596;5.624;2022-07-29T14:10:03;3.05;;;1.73;;
59042;SDS011;44826;51.596;5.624;2022-07-29T14:12:29;4.38;;;1.70;;
59042;SDS011;44826;51.596;5.624;2022-07-29T14:14:54;3.55;;;1.67;;
59042;SDS011;44826;51.596;5.624;2022-07-29T14:17:19;3.40;;;1.70;;
59042;SDS011;44826;51.596;5.624;2022-07-29T14:19:44;3.90;;;1.60;;
59042;SDS011;44826;51.596;5.624;2022-07-29T14:22:10;4.15;;;1.70;;
59042;SDS011;44826;51.596;5.624;2022-07-29T14:24:35;2.38;;;1.63;;
59042;SDS011;44826;51.596;5.624;2022-07-29T14:27:01;9.38;;;1.92;;
59042;SDS011;44826;51.596;5.624;2022-07-29T14:29:26;5.68;;;2.13;;
59042;SDS011;44826;51.596;5.624;2022-07-29T14:31:52;5.22;;;2.10;;
59042;SDS011;44826;51.596;5.624;2022-07-29T14:34:17;5.13;;;2.13;;
59042;SDS011;44826;51.596;5.624;2022-07-29T14:36:43;6.05;;;2.28;;
59042;SDS011;44826;51.596;5.624;2022-07-29T14:39:08;5.78;;;1.90;;
59042;SDS011;44826;51.596;5.624;2022-07-29T14:41:33;3.58;;;1.88;;
59042;SDS011;44826;51.596;5.624;2022-07-29T14:43:59;5.82;;;2.03;;
59042;SDS011;44826;51.596;5.624;2022-07-29T14:46:27;10.70;;;2.25;;
59042;SDS011;44826;51.596;5.624;2022-07-29T14:48:52;6.90;;;2.17;;
59042;SDS011;44826;51.596;5.624;2022-07-29T14:51:19;4.82;;;2.30;;
59042;SDS011;44826;51.596;5.624;2022-07-29T14:53:44;5.03;;;2.30;;
59042;SDS011;44826;51.596;5.624;2022-07-29T14:56:09;4.20;;;1.88;;
59042;SDS011;44826;51.596;5.624;2022-07-29T14:58:35;2.80;;;1.70;;
59042;SDS011;44826;51.596;5.624;2022-07-29T15:01:00;4.25;;;1.80;;
59042;SDS011;44826;51.596;5.624;2022-07-29T15:03:25;3.22;;;1.65;;
59042;SDS011;44826;51.596;5.624;2022-07-29T15:05:52;2.95;;;1.52;;
59042;SDS011;44826;51.596;5.624;2022-07-29T15:08:17;4.25;;;1.50;;
59042;SDS011;44826;51.596;5.624;2022-07-29T15:10:43;3.30;;;1.80;;
59042;SDS011;44826;51.596;5.624;2022-07-29T15:13:08;4.75;;;1.70;;
59042;SDS011;44826;51.596;5.624;2022-07-29T15:15:33;6.90;;;1.80;;
59042;SDS011;44826;51.596;5.624;2022-07-29T15:17:58;5.63;;;1.80;;
59042;SDS011;44826;51.596;5.624;2022-07-29T15:20:24;6.90;;;1.90;;
59042;SDS011;44826;51.596;5.624;2022-07-29T15:22:50;3.75;;;1.70;;
59042;SDS011;44826;51.596;5.624;2022-07-29T15:25:16;4.45;;;1.70;;
59042;SDS011;44826;51.596;5.624;2022-07-29T15:27:41;5.65;;;1.65;;
59042;SDS011;44826;51.596;5.624;2022-07-29T15:30:06;5.20;;;2.00;;
59042;SDS011;44826;51.596;5.624;2022-07-29T15:32:32;3.70;;;1.88;;
59042;SDS011;44826;51.596;5.624;2022-07-29T15:34:57;4.70;;;1.80;;
59042;SDS011;44826;51.596;5.624;2022-07-29T15:37:23;7.00;;;2.10;;
59042;SDS011;44826;51.596;5.624;2022-07-29T15:39:49;4.93;;;1.80;;
59042;SDS011;44826;51.596;5.624;2022-07-29T15:42:14;3.85;;;1.80;;
59042;SDS011;44826;51.596;5.624;2022-07-29T15:44:39;5.32;;;1.90;;